createdAt,value
2018-04-23T10:30:33.952Z,99304.77
2018-04-23T10:31:06.864Z,99298.21
2018-04-23T10:31:39.727Z,99297.45
2018-04-23T10:32:12.536Z,99303.33
2018-04-23T10:32:45.360Z,99302.65
2018-04-23T10:33:18.233Z,99300.95
2018-04-23T10:33:51.110Z,99299.27
2018-04-23T10:34:24.033Z,99301.09
2018-04-23T10:34:56.845Z,99304.67
2018-04-23T10:35:30.307Z,99301.21
2018-04-23T10:36:03.314Z,99304.02
2018-04-23T10:36:36.286Z,99302.91
2018-04-23T10:37:09.084Z,99302.91
2018-04-23T10:37:41.924Z,99295.88
2018-04-23T10:38:14.797Z,99300.34
2018-04-23T10:38:47.659Z,99299.95
2018-04-23T10:39:20.547Z,99303.52
2018-04-23T10:39:53.396Z,99301.75
2018-04-23T10:40:26.265Z,99301.75
2018-04-23T10:40:59.243Z,99299.66
2018-04-23T10:41:32.124Z,99300.56
2018-04-23T10:42:04.988Z,99298.80
2018-04-23T10:42:37.964Z,99296.70
2018-04-23T10:43:11.472Z,99296.78
2018-04-23T10:43:44.316Z,99298.11
2018-04-23T10:44:17.249Z,99303.52
2018-04-23T10:44:50.411Z,99301.25
2018-04-23T10:45:23.254Z,99297.47
2018-04-23T10:45:56.113Z,99299.30
2018-04-23T10:46:28.932Z,99295.30
2018-04-23T10:47:01.852Z,99296.20
2018-04-23T10:47:34.665Z,99297.11
2018-04-23T10:48:07.453Z,99299.02
2018-04-23T10:48:40.749Z,99297.69
2018-04-23T10:49:13.645Z,99298.66
2018-04-23T10:49:46.619Z,99298.30
2018-04-23T10:50:19.485Z,99293.03
2018-04-23T10:50:52.363Z,99291.34
2018-04-23T10:51:26.050Z,99289.25
2018-04-23T10:51:58.933Z,99295.62
2018-04-23T10:52:31.748Z,99291.63
2018-04-23T10:53:04.534Z,99287.27
2018-04-23T10:53:37.327Z,99290.84
2018-04-23T10:54:10.241Z,99289.58
2018-04-23T10:54:43.085Z,99286.11
2018-04-23T10:55:15.964Z,99286.62
2018-04-23T10:55:48.813Z,99287.95
2018-04-23T10:56:21.612Z,99288.02
2018-04-23T10:56:54.657Z,99281.43
2018-04-23T10:57:27.750Z,99287.23
2018-04-23T10:58:00.697Z,99283.73
2018-04-23T10:58:33.576Z,99286.88
2018-04-23T10:59:06.380Z,99285.21
2018-04-23T10:59:39.238Z,99288.27
2018-04-23T11:00:12.052Z,99290.04
2018-04-23T11:00:44.848Z,99286.47
2018-04-23T11:01:17.720Z,99282.47
2018-04-23T11:01:50.715Z,99282.88
2018-04-23T11:02:23.528Z,99283.30
2018-04-23T11:28:24.836Z,99223.19
2018-04-23T11:28:57.689Z,99224.36
2018-04-23T11:29:30.528Z,99224.47
2018-04-23T11:30:10.350Z,99224.03
2018-04-23T11:30:43.221Z,99221.13
2018-04-23T11:31:16.166Z,99220.16
2018-04-23T11:31:49.482Z,99219.98
2018-04-23T11:32:25.166Z,99221.89
2018-04-23T11:33:56.235Z,99220.81
2018-04-23T11:35:52.784Z,99162.37
2018-04-23T11:42:17.657Z,99221.98
2018-04-23T11:42:48.960Z,99230.94
2018-04-23T11:43:21.387Z,99226.39
2018-04-23T11:43:52.613Z,99219.15
2018-04-23T11:44:23.916Z,99218.38
2018-04-23T11:44:58.335Z,99219.75
2018-04-23T11:45:29.559Z,99218.61
2018-04-23T11:46:00.831Z,99215.20
2018-04-23T11:46:32.058Z,99212.94
2018-04-23T11:47:03.309Z,99217.45
2018-04-23T11:47:34.531Z,99223.30
2018-04-23T11:48:05.765Z,99214.51
2018-04-23T11:49:13.715Z,99213.21
2018-04-23T11:49:44.929Z,99211.03
2018-04-23T11:50:16.239Z,99213.06
2018-04-23T11:50:47.482Z,99210.69
2018-04-23T11:51:18.746Z,99210.38
2018-04-23T11:51:49.962Z,99212.04
2018-04-23T11:52:21.419Z,99210.26
2018-04-23T11:52:52.742Z,99217.48
2018-04-23T11:53:23.983Z,99207.92
2018-04-23T11:53:55.266Z,99203.75
2018-04-23T11:54:47.794Z,99201.82
2018-04-23T11:57:57.822Z,99211.62
2018-04-23T11:58:29.097Z,99203.55
2018-04-23T11:59:00.322Z,99200.56
2018-04-23T12:00:11.514Z,99200.56
2018-04-23T12:00:42.746Z,99204.48
2018-04-23T12:01:13.996Z,99199.55
2018-04-23T12:01:45.213Z,99201.43
2018-04-23T12:02:16.441Z,99195.14
2018-04-23T12:02:48.745Z,99196.61
2018-04-23T12:03:19.957Z,99192.00
2018-04-23T12:03:51.164Z,99198.05
2018-04-23T12:04:22.457Z,99196.70
2018-04-23T12:04:53.684Z,99197.48
2018-04-23T12:05:24.964Z,99178.58
2018-04-23T12:05:56.768Z,99197.47
2018-04-23T12:06:28.005Z,99194.38
2018-04-23T12:06:59.372Z,99196.22
2018-04-23T12:07:30.613Z,99195.04
2018-04-23T12:08:01.875Z,99191.34
2018-04-23T12:08:33.096Z,99192.88
2018-04-23T12:09:04.329Z,99194.25
2018-04-23T12:10:04.444Z,99190.17
2018-04-23T12:10:35.661Z,99188.27
2018-04-23T12:11:06.878Z,99193.08
2018-04-23T12:11:38.117Z,99194.11
2018-04-23T12:12:09.334Z,99191.39
2018-04-23T12:12:40.546Z,99187.06
2018-04-23T12:13:11.757Z,99189.81
2018-04-23T12:13:42.979Z,99186.02
2018-04-23T12:14:14.189Z,99189.03
2018-04-23T12:14:45.424Z,99184.02
2018-04-23T12:15:16.680Z,99191.38
2018-04-23T12:16:25.811Z,99184.62
2018-04-23T12:16:57.027Z,99187.14
2018-04-23T12:17:29.978Z,99185.08
2018-04-23T12:20:37.497Z,99181.12
2018-04-23T13:33:02.423Z,99113.29
2018-04-23T13:33:33.678Z,99118.56
2018-04-23T13:34:06.930Z,99119.22
2018-04-23T13:34:38.253Z,99116.42
2018-04-23T13:35:10.261Z,99119.02
2018-04-23T13:35:41.512Z,99117.05
2018-04-23T13:36:12.749Z,99116.63
2018-04-23T13:36:44.032Z,99117.61
2018-04-23T13:37:15.265Z,99114.47
2018-04-23T13:37:46.484Z,99114.74
2018-04-23T13:38:17.730Z,99110.81
2018-04-23T13:38:50.160Z,99115.18
2018-04-23T13:39:21.409Z,99117.14
2018-04-23T13:39:52.702Z,99114.38
2018-04-23T13:40:23.938Z,99117.84
2018-04-23T13:40:55.171Z,99114.36
2018-04-23T13:41:27.660Z,99115.94
2018-04-23T13:42:04.363Z,99119.23
2018-04-23T14:04:12.911Z,99111.70
2018-04-23T14:04:44.394Z,99112.84
2018-04-23T14:05:15.658Z,99100.63
2018-04-23T14:05:51.449Z,99106.93
2018-04-23T14:10:12.255Z,99105.20
2018-04-23T14:10:43.686Z,99085.30
2018-04-23T14:11:16.542Z,99028.02
2018-04-23T14:12:55.018Z,99099.05
2018-04-23T14:13:34.780Z,99100.09
2018-04-23T14:14:06.049Z,99096.32
2018-04-23T14:14:39.422Z,99097.83
2018-04-23T14:15:45.233Z,99099.03
2018-04-23T14:16:17.785Z,99093.96
2018-04-23T14:16:50.258Z,99094.52
2018-04-23T14:18:11.914Z,99104.30
2018-04-23T14:18:43.199Z,99100.52
2018-04-23T14:19:14.563Z,99098.84
2018-04-23T14:19:46.090Z,99100.19
2018-04-23T14:21:11.718Z,99095.52
2018-04-23T14:22:32.571Z,99101.91
2018-04-23T14:23:43.719Z,99098.19
2018-04-23T14:24:15.045Z,99099.53
2018-04-23T14:24:46.340Z,99089.88
2018-04-23T14:25:20.647Z,99099.80
2018-04-23T14:25:52.779Z,99098.91
2018-04-23T14:26:24.171Z,99095.58
2018-04-23T14:26:59.020Z,99100.84
2018-04-23T14:27:31.515Z,99092.87
2018-04-23T14:28:02.899Z,99092.08
2018-04-23T14:28:35.333Z,99094.85
2018-04-23T14:30:33.264Z,99100.59
2018-04-23T14:31:04.628Z,99096.53
2018-04-23T14:31:41.101Z,99097.98
2018-04-23T14:32:12.454Z,99101.02
2018-04-23T14:32:43.886Z,99098.58
2018-04-23T14:33:15.561Z,99101.54
2018-04-23T14:33:56.469Z,99095.73
2018-04-23T14:34:27.868Z,99093.78
2018-04-23T14:35:00.524Z,99096.76
2018-04-23T14:36:10.500Z,99089.54
2018-04-23T14:36:43.090Z,99096.08
2018-04-23T14:37:22.174Z,99097.78
2018-04-23T14:37:53.511Z,99098.68
2018-04-23T14:38:25.821Z,99094.54
2018-04-23T14:41:51.039Z,99102.08
2018-04-23T14:42:22.474Z,99096.42
2018-04-23T14:42:53.805Z,99096.63
2018-04-23T14:43:25.146Z,99093.83
2018-04-23T14:44:00.393Z,99062.66
2018-04-23T14:44:31.729Z,99100.55
2018-04-23T14:45:07.224Z,99098.73
2018-04-23T14:45:39.386Z,99096.85
2018-04-23T14:46:11.815Z,99097.34
2018-04-23T14:46:43.247Z,99100.08
2018-04-23T14:47:14.644Z,99097.78
2018-04-23T14:47:46.178Z,99090.34
2018-04-23T14:48:17.527Z,99098.38
2018-04-23T14:49:32.591Z,99092.05
2018-04-23T14:50:05.554Z,99099.66
2018-04-23T14:50:36.927Z,99096.34
2018-04-23T14:51:11.922Z,99092.48
2018-04-23T14:51:43.317Z,99093.60
2018-04-23T14:52:16.802Z,99096.05
2018-04-23T14:52:52.986Z,99097.26
2018-04-23T14:53:27.501Z,99098.88
2018-04-23T14:53:59.841Z,99098.81
2018-04-23T14:54:57.131Z,99098.08
2018-04-23T14:55:28.570Z,99101.54
2018-04-23T14:56:00.035Z,99099.44
2018-04-23T14:56:35.361Z,99096.99
2018-04-23T15:00:00.652Z,99102.92
2018-04-23T15:00:38.504Z,99082.94
2018-04-23T15:01:11.069Z,99108.16
2018-04-23T15:01:46.026Z,99104.30
2018-04-23T15:02:32.822Z,99103.48
2018-04-23T15:03:05.288Z,99101.24
2018-04-23T15:03:36.606Z,99094.43
2018-04-23T15:04:12.485Z,99105.20
2018-04-23T15:04:44.674Z,99098.74
2018-04-23T15:08:10.601Z,99097.78
2018-04-23T15:08:42.771Z,99103.07
2018-04-23T15:09:14.252Z,99100.19
2018-04-23T15:09:45.598Z,99108.87
2018-04-23T15:10:16.927Z,99101.84
2018-04-23T15:10:51.288Z,99100.21
2018-04-23T15:11:25.030Z,99107.00
2018-04-23T15:11:57.532Z,99104.26
2018-04-23T15:12:28.873Z,99108.07
2018-04-23T15:13:01.231Z,99101.84
2018-04-23T15:13:32.580Z,99105.84
2018-04-23T15:14:04.927Z,99110.31
2018-04-23T15:14:55.765Z,99110.22
2018-04-23T15:15:27.095Z,99111.79
2018-04-23T15:15:58.475Z,99111.97
2018-04-23T15:16:29.760Z,99098.17
2018-04-23T15:17:01.044Z,99106.39
2018-04-23T15:17:32.329Z,99106.21
2018-04-23T15:18:03.591Z,99107.97
2018-04-23T15:18:34.856Z,99099.23
2018-04-23T15:19:06.157Z,99097.52
2018-04-23T15:19:37.369Z,99107.47
2018-04-23T15:20:08.612Z,99105.56
2018-04-23T15:20:39.829Z,99107.63
2018-04-23T15:21:11.037Z,99111.36
2018-04-23T15:21:42.267Z,99110.97
2018-04-23T15:22:14.691Z,99106.53
2018-04-23T15:22:45.916Z,99109.50
2018-04-23T15:23:17.142Z,99109.14
2018-04-23T15:23:48.370Z,99107.03
2018-04-23T15:24:19.629Z,99114.68
2018-04-23T15:24:50.848Z,99112.11
2018-04-23T15:25:22.061Z,99105.60
2018-04-23T15:25:53.376Z,99107.77
2018-04-23T15:26:24.626Z,99104.75
2018-04-23T15:26:55.847Z,99105.29
2018-04-23T15:27:27.108Z,99100.25
2018-04-23T15:27:58.317Z,99112.81
2018-04-23T15:28:29.523Z,99110.16
2018-04-23T15:29:00.729Z,99105.59
2018-04-23T15:29:31.933Z,99105.28
2018-04-23T15:30:03.155Z,99099.42
2018-04-23T15:30:34.358Z,99102.75
2018-04-23T15:31:05.634Z,99105.42
2018-04-23T15:31:36.849Z,99107.30
2018-04-23T15:32:08.048Z,99109.41
2018-04-23T15:32:39.305Z,99103.28
2018-04-23T15:33:10.512Z,99104.20
2018-04-23T15:33:41.717Z,99104.67
2018-04-23T15:34:12.923Z,99103.98
2018-04-23T15:34:44.133Z,99105.56
2018-04-23T15:35:15.390Z,99113.03
2018-04-23T15:35:46.620Z,99109.28
2018-04-23T15:36:17.883Z,99107.70
2018-04-23T15:36:49.187Z,99101.97
2018-04-23T15:37:20.399Z,99106.68
2018-04-23T15:37:51.602Z,99106.58
2018-04-23T15:38:22.840Z,99108.77
2018-04-23T15:38:54.065Z,99076.95
2018-04-23T15:39:25.333Z,99108.34
2018-04-23T15:39:56.588Z,99109.01
2018-04-23T15:40:27.789Z,99108.81
2018-04-23T15:40:58.997Z,99106.16
2018-04-23T15:41:30.228Z,99106.05
2018-04-23T15:42:01.493Z,99111.59
2018-04-23T15:42:32.717Z,99107.41
2018-04-23T15:43:03.929Z,99112.08
2018-04-23T15:43:35.248Z,99094.64
2018-04-23T15:44:06.480Z,99105.14
2018-04-23T15:44:37.705Z,99101.98
2018-04-23T15:45:08.912Z,99111.09
2018-04-23T15:45:40.118Z,99110.45
2018-04-23T15:46:11.409Z,99084.49
2018-04-23T15:46:42.664Z,99105.73
2018-04-23T15:47:13.965Z,99103.61
2018-04-23T15:47:45.170Z,99106.70
2018-04-23T15:48:16.416Z,99108.16
2018-04-23T15:48:47.694Z,99103.94
2018-04-23T15:49:18.973Z,99103.64
2018-04-23T15:49:50.205Z,99105.08
2018-04-23T15:50:21.490Z,99111.30
2018-04-23T15:50:52.712Z,99106.63
2018-04-23T15:51:23.978Z,99108.70
2018-04-23T15:51:55.184Z,99107.11
2018-04-23T15:52:26.469Z,99106.92
2018-04-23T15:52:57.704Z,99056.38
2018-04-23T15:53:28.916Z,99116.27
2018-04-23T15:54:00.185Z,99114.63
2018-04-23T15:54:31.399Z,99105.88
2018-04-23T15:55:02.612Z,99112.86
2018-04-23T15:55:33.845Z,99105.98
2018-04-23T15:56:05.093Z,99114.54
2018-04-23T15:56:36.338Z,99106.41
2018-04-23T15:57:07.696Z,99109.34
2018-04-23T15:57:38.905Z,99110.59
2018-04-23T15:58:10.137Z,99107.89
2018-04-23T15:58:46.198Z,99107.08
2018-04-23T15:59:17.592Z,99110.66
2018-04-23T15:59:49.315Z,99107.24
2018-04-23T16:00:20.537Z,99092.84
2018-04-23T16:00:51.767Z,99111.05
2018-04-23T16:01:22.985Z,99107.67
2018-04-23T16:01:54.187Z,99109.41
2018-04-23T16:02:25.396Z,99113.16
2018-04-23T16:02:56.634Z,99114.51
2018-04-23T16:03:27.833Z,99111.47
2018-04-23T16:03:59.082Z,99106.77
2018-04-23T16:04:30.365Z,99113.84
2018-04-23T16:05:01.591Z,99111.33
2018-04-23T16:05:32.817Z,99107.52
2018-04-23T16:06:04.041Z,99112.47
2018-04-23T16:06:36.230Z,99109.34
2018-04-23T16:07:07.462Z,99108.39
2018-04-23T16:07:39.639Z,99109.92
2018-04-23T16:08:10.895Z,99111.17
2018-04-23T16:08:42.155Z,99112.77
2018-04-23T16:09:13.356Z,99112.32
2018-04-23T16:09:44.619Z,99114.64
2018-04-23T16:10:15.903Z,99112.84
2018-04-23T16:10:47.169Z,99116.02
2018-04-23T16:11:18.390Z,99109.53
2018-04-23T16:11:49.599Z,99110.48
2018-04-23T16:12:20.836Z,99111.59
2018-04-23T16:12:52.044Z,99113.15
2018-04-23T16:13:23.875Z,99105.78
2018-04-23T16:13:55.140Z,99111.95
2018-04-23T16:14:26.365Z,99115.27
2018-04-23T16:14:57.569Z,99108.43
2018-04-23T16:15:28.783Z,99114.83
2018-04-23T16:15:59.996Z,99111.38
2018-04-23T16:16:31.270Z,99115.89
2018-04-23T16:17:02.568Z,99107.53
2018-04-23T16:17:33.776Z,99111.04
2018-04-23T16:18:04.976Z,99112.46
2018-04-23T16:18:36.187Z,99108.27
2018-04-23T16:19:07.440Z,99108.62
2018-04-23T16:19:38.686Z,99110.58
2018-04-23T16:20:10.054Z,99103.21
2018-04-23T16:20:41.269Z,99109.42
2018-04-23T16:21:12.473Z,99107.97
2018-04-23T16:21:44.805Z,99109.32
2018-04-23T16:22:16.085Z,99096.44
2018-04-23T16:22:47.308Z,99109.08
2018-04-23T16:23:18.581Z,99106.63
2018-04-23T16:23:49.790Z,99107.41
2018-04-23T16:24:21.001Z,99107.59
2018-04-23T16:24:52.204Z,99112.48
2018-04-23T16:25:24.047Z,99112.52
2018-04-23T16:25:55.264Z,99114.97
2018-04-23T16:26:26.898Z,99116.02
2018-04-23T16:26:58.104Z,99114.85
2018-04-23T16:27:29.339Z,99108.55
2018-04-23T16:28:00.573Z,99116.32
2018-04-23T16:28:31.825Z,99121.80
2018-04-23T16:29:04.009Z,99116.26
2018-04-23T16:29:35.253Z,99118.52
2018-04-23T16:30:06.544Z,99118.52
2018-04-23T16:30:37.728Z,99112.92
2018-04-23T16:31:08.973Z,99116.20
2018-04-23T16:31:40.184Z,99117.08
2018-04-23T16:32:11.449Z,99120.53
2018-04-23T16:32:42.692Z,99115.23
2018-04-23T16:33:13.924Z,99110.13
2018-04-23T16:33:45.165Z,99116.97
2018-04-23T16:34:16.393Z,99117.36
2018-04-23T16:34:47.601Z,99116.31
2018-04-23T16:35:18.804Z,99119.94
2018-04-23T16:35:50.025Z,99121.27
2018-04-23T16:36:21.264Z,99118.00
2018-04-23T16:36:52.472Z,99125.42
2018-04-23T16:37:23.721Z,99119.38
2018-04-23T16:37:54.914Z,99115.19
2018-04-23T16:38:26.125Z,99118.12
2018-04-23T16:38:57.346Z,99119.23
2018-04-23T16:39:28.600Z,99124.70
2018-04-23T16:39:59.842Z,99121.09
2018-04-23T16:40:31.061Z,99119.32
2018-04-23T16:41:02.298Z,99118.49
2018-04-23T16:41:33.586Z,99116.55
2018-04-23T16:42:04.816Z,99120.25
2018-04-23T16:42:36.030Z,99122.33
2018-04-23T16:43:07.253Z,99125.70
2018-04-23T16:43:38.509Z,99126.03
2018-04-23T16:44:09.774Z,99122.15
2018-04-23T16:44:41.018Z,99123.77
2018-04-23T16:45:12.258Z,99125.70
2018-04-23T16:45:43.465Z,99127.80
2018-04-23T16:46:14.673Z,99123.77
2018-04-23T16:46:45.894Z,99106.92
2018-04-23T16:47:17.134Z,99126.38
2018-04-23T16:47:48.352Z,99123.02
2018-04-23T16:48:19.721Z,99123.28
2018-04-23T16:48:51.055Z,99124.20
2018-04-23T16:49:22.831Z,99122.60
2018-04-23T16:49:54.041Z,99131.77
2018-04-23T16:50:25.253Z,99131.01
2018-04-23T16:50:57.757Z,99127.14
2018-04-23T16:51:29.038Z,99114.97
2018-04-23T16:52:00.281Z,99125.39
2018-04-23T16:52:31.501Z,99117.08
2018-04-23T16:53:02.713Z,99102.13
2018-04-23T16:53:33.925Z,99121.53
2018-04-23T16:54:05.154Z,99124.56
2018-04-23T16:54:37.032Z,99130.51
2018-04-23T16:55:08.325Z,99127.82
2018-04-23T16:55:39.620Z,99129.34
2018-04-23T16:56:10.877Z,99129.43
2018-04-23T16:56:42.192Z,99132.71
2018-04-23T16:57:13.435Z,99128.83
2018-04-23T16:57:44.652Z,99130.08
2018-04-23T16:58:15.858Z,99130.43
2018-04-23T16:58:47.067Z,99133.80
2018-04-23T16:59:18.273Z,99133.28
2018-04-23T16:59:50.515Z,99134.72
2018-04-23T17:00:21.753Z,99134.22
2018-04-23T17:00:52.988Z,99138.91
2018-04-23T17:01:24.212Z,99139.39
2018-04-23T17:01:55.430Z,99137.31
2018-04-23T17:02:26.688Z,99132.45
2018-04-23T17:02:57.874Z,99136.39
2018-04-23T17:03:29.117Z,99134.28
2018-04-23T17:04:00.381Z,99137.48
2018-04-23T17:04:32.264Z,99135.55
2018-04-23T17:05:03.497Z,99139.80
2018-04-23T17:05:35.813Z,99137.27
2018-04-23T17:06:07.070Z,99139.19
2018-04-23T17:06:38.351Z,99144.55
2018-04-23T17:07:09.585Z,99138.33
2018-04-23T17:07:42.566Z,99137.91
2018-04-23T17:08:13.788Z,99136.16
2018-04-23T17:08:45.011Z,99137.25
2018-04-23T17:09:16.281Z,99140.41
2018-04-23T17:09:47.536Z,99143.70
2018-04-23T17:10:18.734Z,99145.44
2018-04-23T17:10:49.977Z,99143.93
2018-04-23T17:11:21.189Z,99141.81
2018-04-23T17:11:52.427Z,99146.84
2018-04-23T17:12:23.671Z,99141.98
2018-04-23T17:12:55.022Z,99148.61
2018-04-23T17:13:26.394Z,99149.61
2018-04-23T17:13:57.650Z,99151.20
2018-04-23T17:14:28.881Z,99145.84
2018-04-23T17:15:00.100Z,99147.75
2018-04-23T17:15:31.298Z,99146.75
2018-04-23T17:16:02.517Z,99155.06
2018-04-23T17:16:33.763Z,99150.74
2018-04-23T17:17:04.974Z,99151.47
2018-04-23T17:17:36.570Z,99147.67
2018-04-23T17:18:07.784Z,99151.09
2018-04-23T17:18:39.001Z,99162.47
2018-04-23T17:19:10.223Z,99151.91
2018-04-23T17:19:41.783Z,99152.42
2018-04-23T17:20:12.999Z,99153.94
2018-04-23T17:20:44.216Z,99152.81
2018-04-23T17:21:15.468Z,99156.09
2018-04-23T17:21:47.390Z,99156.84
2018-04-23T17:22:18.652Z,99157.14
2018-04-23T17:22:49.889Z,99162.66
2018-04-23T17:23:21.105Z,99162.39
2018-04-23T17:23:52.318Z,99158.20
2018-04-23T17:24:23.565Z,99158.42
2018-04-23T17:24:54.788Z,99159.11
2018-04-23T17:25:25.993Z,99160.63
2018-04-23T17:25:57.222Z,99159.20
2018-04-23T17:26:28.438Z,99162.48
2018-04-23T17:26:59.666Z,99160.38
2018-04-23T17:27:30.932Z,99161.53
2018-04-23T17:28:02.162Z,99166.72
2018-04-23T17:28:36.150Z,99166.02
2018-04-23T17:29:08.261Z,99158.22
2018-04-23T17:29:39.468Z,99166.36
2018-04-23T17:30:10.692Z,99165.48
2018-04-23T17:30:41.906Z,99165.01
2018-04-23T17:31:13.146Z,99165.92
2018-04-23T17:31:44.345Z,99165.48
2018-04-23T17:32:15.552Z,99168.80
2018-04-23T17:32:46.792Z,99168.28
2018-04-23T17:33:18.001Z,99163.33
2018-04-23T17:33:49.270Z,99171.67
2018-04-23T17:34:20.536Z,99171.66
2018-04-23T17:34:51.745Z,99168.25
2018-04-23T17:35:22.969Z,99172.35
2018-04-23T17:35:54.177Z,99172.44
2018-04-23T17:36:25.400Z,99172.78
2018-04-23T17:36:56.613Z,99175.98
2018-04-23T17:37:27.838Z,99175.71
2018-04-23T17:37:59.065Z,99177.17
2018-04-23T17:38:30.288Z,99179.91
2018-04-23T17:39:01.510Z,99171.72
2018-04-23T17:39:32.797Z,99178.39
2018-04-23T17:40:04.038Z,99178.23
2018-04-23T17:40:35.268Z,99182.35
2018-04-23T17:41:06.499Z,99176.70
2018-04-23T17:41:37.779Z,99182.45
2018-04-23T17:42:08.996Z,99183.13
2018-04-23T17:42:40.196Z,99184.69
2018-04-23T17:43:11.401Z,99184.50
2018-04-23T17:43:42.613Z,99183.92
2018-04-23T17:44:13.827Z,99181.80
2018-04-23T17:44:45.075Z,99186.89
2018-04-23T17:45:16.280Z,99189.98
2018-04-23T17:45:47.484Z,99187.70
2018-04-23T17:46:18.749Z,99187.16
2018-04-23T17:46:49.981Z,99189.52
2018-04-23T17:47:21.166Z,99186.88
2018-04-23T17:47:52.413Z,99192.95
2018-04-23T17:48:23.645Z,99193.01
2018-04-23T17:48:54.887Z,99198.17
2018-04-23T17:49:26.098Z,99197.05
2018-04-23T17:49:57.354Z,99191.50
2018-04-23T17:50:28.592Z,99193.16
2018-04-23T17:50:59.832Z,99190.98
2018-04-23T17:51:31.053Z,99193.39
2018-04-23T17:52:02.271Z,99195.80
2018-04-23T17:52:33.494Z,99197.45
2018-04-23T17:53:04.721Z,99200.94
2018-04-23T17:53:35.947Z,99206.64
2018-04-23T17:54:07.260Z,99207.81
2018-04-23T17:54:38.515Z,99197.45
2018-04-23T17:55:09.733Z,99208.80
2018-04-23T17:55:40.966Z,99195.23
2018-04-23T17:56:12.173Z,99207.36
2018-04-23T17:56:43.495Z,99203.90
2018-04-23T17:57:14.712Z,99200.16
2018-04-23T17:57:45.926Z,99207.20
2018-04-23T17:58:17.172Z,99204.28
2018-04-23T17:58:48.399Z,99199.06
2018-04-23T17:59:20.321Z,99204.42
2018-04-23T17:59:51.563Z,99207.73
2018-04-23T18:00:22.774Z,99205.30
2018-04-23T18:00:53.977Z,99205.66
2018-04-23T18:01:25.246Z,99210.56
2018-04-23T18:01:56.469Z,99211.52
2018-04-23T18:02:27.683Z,99207.98
2018-04-23T18:02:58.909Z,99214.83
2018-04-23T18:03:30.141Z,99205.50
2018-04-23T18:04:01.362Z,99211.50
2018-04-23T18:04:33.831Z,99208.98
2018-04-23T18:05:05.132Z,99214.05
2018-04-23T18:05:36.420Z,99209.53
2018-04-23T18:06:07.640Z,99212.64
2018-04-23T18:06:38.893Z,99203.45
2018-04-23T18:07:10.124Z,99209.69
2018-04-23T18:07:41.771Z,99214.30
2018-04-23T18:08:12.977Z,99219.38
2018-04-23T18:08:44.205Z,99218.75
2018-04-23T18:09:15.507Z,99215.28
2018-04-23T18:09:46.729Z,99221.11
2018-04-23T18:10:17.949Z,99215.91
2018-04-23T18:10:49.168Z,99217.56
2018-04-23T18:11:20.440Z,99219.41
2018-04-23T18:11:51.680Z,99220.31
2018-04-23T18:12:22.905Z,99220.79
2018-04-23T18:12:54.116Z,99222.06
2018-04-23T18:13:25.340Z,99225.95
2018-04-23T18:13:56.580Z,99225.56
2018-04-23T18:14:27.841Z,99229.62
2018-04-23T18:14:59.047Z,99230.38
2018-04-23T18:15:30.379Z,99226.56
2018-04-23T18:16:01.626Z,99230.38
2018-04-23T18:16:32.841Z,99235.88
2018-04-23T18:17:04.099Z,99232.38
2018-04-23T18:17:35.356Z,99230.77
2018-04-23T18:18:06.603Z,99233.59
2018-04-23T18:18:38.958Z,99235.45
2018-04-23T18:19:10.161Z,99235.92
2018-04-23T18:19:41.366Z,99233.88
2018-04-23T18:20:12.626Z,99233.05
2018-04-23T18:20:43.836Z,99235.30
2018-04-23T18:21:15.059Z,99246.34
2018-04-23T18:21:46.327Z,99243.75
2018-04-23T18:22:17.568Z,99242.84
2018-04-23T18:22:48.783Z,99238.91
2018-04-23T18:23:20.026Z,99245.52
2018-04-23T18:23:51.285Z,99246.09
2018-04-23T18:24:22.522Z,99246.73
2018-04-23T18:24:53.754Z,99243.62
2018-04-23T18:25:24.976Z,99250.27
2018-04-23T18:25:56.161Z,99249.84
2018-04-23T18:26:27.388Z,99250.81
2018-04-23T18:26:58.648Z,99247.59
2018-04-23T18:27:29.861Z,99247.98
2018-04-23T18:28:01.083Z,99246.37
2018-04-23T18:28:32.289Z,99252.08
2018-04-23T18:29:03.542Z,99253.14
2018-04-23T18:29:34.792Z,99255.06
2018-04-23T18:30:05.998Z,99250.49
2018-04-23T18:30:37.203Z,99251.91
2018-04-23T18:31:08.405Z,99250.09
2018-04-23T18:31:39.655Z,99252.64
2018-04-23T18:32:10.897Z,99251.17
2018-04-23T18:32:42.129Z,99250.97
2018-04-23T18:33:13.358Z,99255.34
2018-04-23T18:33:44.741Z,99255.46
2018-04-23T18:34:15.949Z,99250.80
2018-04-23T18:34:47.205Z,99254.60
2018-04-23T18:35:18.428Z,99255.87
2018-04-23T18:35:49.698Z,99253.90
2018-04-23T18:36:21.003Z,99260.38
2018-04-23T18:36:52.238Z,99248.38
2018-04-23T18:37:25.639Z,99258.21
2018-04-23T18:37:56.866Z,99255.89
2018-04-23T18:38:28.090Z,99243.10
2018-04-23T18:38:59.291Z,99262.50
2018-04-23T18:39:30.516Z,99259.52
2018-04-23T18:40:01.763Z,99258.97
2018-04-23T18:40:33.747Z,99262.34
2018-04-23T18:41:04.959Z,99266.23
2018-04-23T18:41:36.253Z,99260.80
2018-04-23T18:42:07.493Z,99252.45
2018-04-23T18:42:38.708Z,99260.94
2018-04-23T18:43:09.991Z,99260.05
2018-04-23T18:43:41.190Z,99260.12
2018-04-23T18:44:12.407Z,99265.88
2018-04-23T18:44:43.613Z,99261.61
2018-04-23T18:45:14.834Z,99261.26
2018-04-23T18:45:47.023Z,99265.69
2018-04-23T18:46:18.220Z,99266.04
2018-04-23T18:46:49.487Z,99260.84
2018-04-23T18:47:21.317Z,99261.56
2018-04-23T18:47:52.860Z,99266.75
2018-04-23T18:48:24.109Z,99260.16
2018-04-23T18:48:55.334Z,99268.56
2018-04-23T18:49:26.557Z,99266.83
2018-04-23T18:49:57.812Z,99266.39
2018-04-23T18:50:29.024Z,99259.94
2018-04-23T18:51:00.300Z,99266.63
2018-04-23T18:51:31.508Z,99271.25
2018-04-23T18:52:02.728Z,99265.48
2018-04-23T18:52:34.123Z,99267.47
2018-04-23T18:53:05.853Z,99266.89
2018-04-23T18:53:37.058Z,99260.92
2018-04-23T18:54:08.264Z,99268.86
2018-04-23T18:54:39.873Z,99269.37
2018-04-23T18:55:11.248Z,99266.48
2018-04-23T18:55:42.456Z,99269.86
2018-04-23T18:56:13.670Z,99271.27
2018-04-23T18:56:44.898Z,99274.05
2018-04-23T18:57:16.104Z,99276.16
2018-04-23T18:57:47.334Z,99280.97
2018-04-23T18:58:18.642Z,99276.75
2018-04-23T18:58:50.705Z,99277.84
2018-04-23T18:59:21.920Z,99275.83
2018-04-23T18:59:53.137Z,99272.11
2018-04-23T19:00:24.349Z,99281.66
2018-04-23T19:00:56.229Z,99282.09
2018-04-23T19:01:27.485Z,99281.51
2018-04-23T19:01:59.134Z,99285.44
2018-04-23T19:02:30.405Z,99286.02
2018-04-23T19:03:01.598Z,99281.73
2018-04-23T19:03:32.807Z,99282.41
2018-04-23T19:04:04.033Z,99283.05
2018-04-23T19:04:35.285Z,99285.65
2018-04-23T19:05:06.505Z,99283.41
2018-04-23T19:05:37.745Z,99281.60
2018-04-23T19:06:08.963Z,99285.72
2018-04-23T19:06:40.172Z,99287.64
2018-04-23T19:07:11.449Z,99285.25
2018-04-23T19:07:42.664Z,99286.16
2018-04-23T19:08:13.879Z,99287.75
2018-04-23T19:08:45.136Z,99287.83
2018-04-23T19:09:16.369Z,99288.19
2018-04-23T19:09:47.606Z,99286.02
2018-04-23T19:10:18.822Z,99284.18
2018-04-23T19:10:50.042Z,99290.21
2018-04-23T19:11:21.271Z,99288.48
2018-04-23T19:11:52.480Z,99291.27
2018-04-23T19:12:23.741Z,99293.61
2018-04-23T19:12:54.949Z,99293.25
2018-04-23T19:13:26.187Z,99298.30
2018-04-23T19:13:57.397Z,99290.38
2018-04-23T19:14:28.620Z,99296.25
2018-04-23T19:14:59.960Z,99295.11
2018-04-23T19:15:31.191Z,99293.41
2018-04-23T19:16:02.452Z,99293.75
2018-04-23T19:16:33.703Z,99296.28
2018-04-23T19:17:04.912Z,99290.58
2018-04-23T19:17:36.122Z,99293.53
2018-04-23T19:18:07.329Z,99291.66
2018-04-23T19:18:38.531Z,99290.87